createdAt,value
2023-03-10T00:00:12.801Z,100.00
2023-03-10T00:02:44.968Z,100.00
2023-03-10T00:05:11.456Z,100.00
2023-03-10T00:07:37.965Z,100.00
2023-03-10T00:10:04.839Z,100.00
2023-03-10T00:12:31.353Z,100.00
2023-03-10T00:14:57.816Z,100.00
2023-03-10T00:17:24.615Z,100.00
2023-03-10T00:19:51.083Z,100.00
2023-03-10T00:22:17.535Z,100.00
2023-03-10T00:24:44.009Z,100.00
2023-03-10T00:27:10.480Z,100.00
2023-03-10T00:29:37.091Z,100.00
2023-03-10T00:32:03.868Z,100.00
2023-03-10T00:34:30.301Z,100.00
2023-03-10T00:36:56.877Z,100.00
2023-03-10T00:39:23.436Z,100.00
2023-03-10T00:41:50.024Z,100.00
2023-03-10T00:44:16.545Z,100.00
2023-03-10T00:46:43.086Z,100.00
2023-03-10T00:49:14.877Z,100.00
2023-03-10T00:51:41.402Z,100.00
2023-03-10T00:54:07.836Z,100.00
2023-03-10T00:56:34.314Z,100.00
2023-03-10T00:59:01.264Z,100.00
2023-03-10T01:01:32.645Z,100.00
2023-03-10T01:04:01.540Z,100.00
2023-03-10T01:06:28.285Z,100.00
2023-03-10T01:08:54.849Z,100.00
2023-03-10T01:11:24.270Z,100.00
2023-03-10T01:13:51.206Z,100.00
2023-03-10T01:16:17.702Z,100.00
2023-03-10T01:18:45.137Z,100.00
2023-03-10T01:21:17.559Z,100.00
2023-03-10T01:23:44.083Z,100.00
2023-03-10T01:26:10.564Z,100.00
2023-03-10T01:28:37.124Z,100.00
2023-03-10T01:31:05.541Z,100.00
2023-03-10T01:33:32.596Z,100.00
2023-03-10T01:35:59.056Z,100.00
2023-03-10T01:38:25.561Z,100.00
2023-03-10T01:40:52.074Z,100.00
2023-03-10T01:43:22.103Z,100.00
2023-03-10T01:45:48.558Z,100.00
2023-03-10T01:48:16.775Z,100.00
2023-03-10T01:50:45.279Z,100.00
2023-03-10T01:53:13.319Z,100.00
2023-03-10T01:55:43.156Z,100.00
2023-03-10T01:58:10.840Z,100.00
2023-03-10T02:00:37.337Z,100.00
2023-03-10T02:03:19.964Z,100.00
2023-03-10T02:05:49.233Z,100.00
2023-03-10T02:08:17.183Z,100.00
2023-03-10T02:10:44.652Z,100.00
2023-03-10T02:13:11.254Z,100.00
2023-03-10T02:15:38.026Z,100.00
2023-03-10T02:18:06.098Z,100.00
2023-03-10T02:20:56.824Z,100.00
2023-03-10T02:23:28.185Z,100.00
2023-03-10T02:26:01.137Z,100.00
2023-03-10T02:28:27.887Z,100.00
2023-03-10T02:30:54.857Z,100.00
2023-03-10T02:33:24.989Z,100.00
2023-03-10T02:35:51.539Z,100.00
2023-03-10T02:38:18.092Z,100.00
2023-03-10T02:40:49.664Z,100.00
2023-03-10T02:43:20.467Z,100.00
2023-03-10T02:45:48.492Z,100.00
2023-03-10T02:48:20.860Z,100.00
2023-03-10T02:50:47.799Z,100.00
2023-03-10T02:53:18.050Z,100.00
2023-03-10T02:55:44.752Z,100.00
2023-03-10T02:58:11.963Z,100.00
2023-03-10T03:00:39.655Z,100.00
2023-03-10T03:03:07.495Z,100.00
2023-03-10T03:05:34.503Z,100.00
2023-03-10T03:08:01.049Z,100.00
2023-03-10T03:10:27.850Z,100.00
2023-03-10T03:12:56.184Z,100.00
2023-03-10T03:15:23.234Z,100.00
2023-03-10T03:17:50.014Z,100.00
2023-03-10T03:20:17.661Z,100.00
2023-03-10T03:22:45.448Z,100.00
2023-03-10T03:25:15.120Z,100.00
2023-03-10T03:27:42.533Z,100.00
2023-03-10T03:30:14.938Z,100.00
2023-03-10T03:32:41.726Z,100.00
2023-03-10T03:35:13.621Z,100.00
2023-03-10T03:37:40.124Z,100.00
2023-03-10T03:40:12.870Z,100.00
2023-03-10T03:42:43.875Z,100.00
2023-03-10T03:45:15.104Z,100.00
2023-03-10T03:47:41.735Z,100.00
2023-03-10T03:50:10.196Z,100.00
2023-03-10T03:52:36.758Z,100.00
2023-03-10T03:55:04.258Z,100.00
2023-03-10T03:57:30.847Z,100.00
2023-03-10T03:59:57.305Z,100.00
2023-03-10T04:02:23.937Z,100.00
2023-03-10T04:04:50.457Z,100.00
2023-03-10T04:07:17.121Z,100.00
2023-03-10T04:09:43.578Z,100.00
2023-03-10T04:12:10.461Z,100.00
2023-03-10T04:14:37.882Z,100.00
2023-03-10T04:17:05.308Z,100.00
2023-03-10T04:19:31.896Z,100.00
2023-03-10T04:21:58.379Z,100.00
2023-03-10T04:24:24.829Z,100.00
2023-03-10T04:26:51.409Z,100.00
2023-03-10T04:29:17.914Z,100.00
2023-03-10T04:31:50.524Z,100.00
2023-03-10T04:34:25.555Z,100.00
2023-03-10T04:36:51.990Z,100.00
2023-03-10T04:39:18.525Z,100.00
2023-03-10T04:41:44.999Z,100.00
2023-03-10T04:44:24.425Z,100.00
2023-03-10T04:46:56.553Z,100.00
2023-03-10T04:49:23.063Z,100.00
2023-03-10T04:51:49.549Z,100.00
2023-03-10T04:54:16.445Z,100.00
2023-03-10T04:56:43.010Z,100.00
2023-03-10T04:59:09.506Z,100.00
2023-03-10T05:01:36.098Z,100.00
2023-03-10T05:04:04.520Z,100.00
2023-03-10T05:06:31.394Z,100.00
2023-03-10T05:08:58.210Z,100.00
2023-03-10T05:11:24.676Z,100.00
2023-03-10T05:13:51.189Z,100.00
2023-03-10T05:16:20.237Z,100.00
2023-03-10T05:18:46.957Z,100.00
2023-03-10T05:21:13.780Z,100.00
2023-03-10T05:23:40.458Z,100.00
2023-03-10T05:26:09.050Z,100.00
2023-03-10T05:28:36.165Z,100.00
2023-03-10T05:31:11.327Z,100.00
2023-03-10T05:33:37.815Z,100.00
2023-03-10T05:36:08.843Z,100.00
2023-03-10T05:38:36.512Z,100.00
2023-03-10T05:41:06.818Z,100.00
2023-03-10T05:43:33.450Z,100.00
2023-03-10T05:46:00.359Z,100.00
2023-03-10T05:48:27.076Z,100.00
2023-03-10T05:51:05.800Z,100.00
2023-03-10T05:53:34.301Z,100.00
2023-03-10T05:56:00.869Z,100.00
2023-03-10T05:58:27.759Z,100.00
2023-03-10T06:00:54.488Z,100.00
2023-03-10T06:03:23.313Z,100.00
2023-03-10T06:05:50.321Z,100.00
2023-03-10T06:08:19.931Z,100.00
2023-03-10T06:10:46.448Z,100.00
2023-03-10T06:13:12.978Z,100.00
2023-03-10T06:15:39.504Z,100.00
2023-03-10T06:18:06.146Z,100.00
2023-03-10T06:20:32.676Z,100.00
2023-03-10T06:22:59.180Z,100.00
2023-03-10T06:25:25.650Z,100.00
2023-03-10T06:27:52.256Z,100.00
2023-03-10T06:30:18.946Z,100.00
2023-03-10T06:32:45.739Z,100.00
2023-03-10T06:35:13.963Z,100.00
2023-03-10T06:37:41.256Z,100.00
2023-03-10T06:40:10.084Z,100.00
2023-03-10T06:42:36.955Z,100.00
2023-03-10T06:45:04.091Z,100.00
2023-03-10T06:47:30.668Z,100.00
2023-03-10T06:49:57.440Z,100.00
2023-03-10T06:52:24.158Z,100.00
2023-03-10T06:54:50.763Z,100.00
2023-03-10T06:57:19.858Z,100.00
2023-03-10T06:59:47.306Z,100.00
2023-03-10T07:02:13.817Z,100.00
2023-03-10T07:04:40.554Z,100.00
2023-03-10T07:07:07.286Z,100.00
2023-03-10T07:09:33.896Z,100.00
2023-03-10T07:12:00.483Z,100.00
2023-03-10T07:14:27.032Z,100.00
2023-03-10T07:16:53.604Z,100.00
2023-03-10T07:19:20.920Z,100.00
2023-03-10T07:21:47.573Z,100.00
2023-03-10T07:24:14.675Z,100.00
2023-03-10T07:26:41.345Z,100.00
2023-03-10T07:29:07.921Z,100.00
2023-03-10T07:31:34.830Z,100.00
2023-03-10T07:34:02.105Z,100.00
2023-03-10T07:36:29.230Z,100.00
2023-03-10T07:38:56.598Z,100.00
2023-03-10T07:41:23.227Z,100.00
2023-03-10T07:43:53.881Z,100.00
2023-03-10T07:46:21.191Z,100.00
2023-03-10T07:48:48.198Z,100.00
2023-03-10T07:51:15.635Z,100.00
2023-03-10T07:53:42.417Z,100.00
2023-03-10T07:56:10.944Z,100.00
2023-03-10T07:58:37.942Z,100.00
2023-03-10T08:01:05.396Z,100.00
2023-03-10T08:03:33.970Z,100.00
2023-03-10T08:06:01.566Z,100.00
2023-03-10T08:08:28.506Z,100.00
2023-03-10T08:11:06.790Z,100.00
2023-03-10T08:13:33.687Z,100.00
2023-03-10T08:16:01.564Z,100.00
2023-03-10T08:18:29.639Z,100.00
2023-03-10T08:20:57.066Z,100.00
2023-03-10T08:23:24.508Z,100.00
2023-03-10T08:25:51.313Z,100.00
2023-03-10T08:28:17.880Z,100.00
2023-03-10T08:31:02.633Z,100.00
2023-03-10T08:33:30.717Z,100.00
2023-03-10T08:36:05.401Z,100.00
2023-03-10T08:38:32.496Z,100.00
2023-03-10T08:41:16.072Z,100.00
2023-03-10T08:43:43.323Z,100.00
2023-03-10T08:46:12.902Z,100.00
2023-03-10T08:48:42.681Z,100.00
2023-03-10T08:51:10.247Z,100.00
2023-03-10T08:53:37.916Z,100.00
2023-03-10T08:56:05.344Z,100.00
2023-03-10T08:58:32.619Z,100.00
2023-03-10T09:00:59.598Z,100.00
2023-03-10T09:03:26.904Z,100.00
2023-03-10T09:05:55.491Z,100.00
2023-03-10T09:08:22.148Z,100.00
2023-03-10T09:10:48.711Z,100.00
2023-03-10T09:13:16.255Z,100.00
2023-03-10T09:15:43.037Z,100.00
2023-03-10T09:18:11.286Z,100.00
2023-03-10T09:20:39.232Z,100.00
2023-03-10T09:23:06.615Z,100.00
2023-03-10T09:25:33.193Z,100.00
2023-03-10T09:28:00.108Z,100.00
2023-03-10T09:30:27.003Z,100.00
2023-03-10T09:32:54.223Z,100.00
2023-03-10T09:35:20.995Z,100.00
2023-03-10T09:37:47.628Z,100.00
2023-03-10T09:40:19.341Z,100.00
2023-03-10T09:42:47.756Z,100.00
2023-03-10T09:45:31.462Z,100.00
2023-03-10T09:48:19.454Z,100.00
2023-03-10T09:50:48.064Z,100.00
2023-03-10T09:53:44.460Z,100.00
2023-03-10T09:56:20.394Z,100.00
2023-03-10T09:58:50.272Z,100.00
2023-03-10T10:01:19.884Z,100.00
2023-03-10T10:03:52.953Z,100.00
2023-03-10T10:06:29.074Z,100.00
2023-03-10T10:09:05.048Z,100.00
2023-03-10T10:11:33.213Z,100.00
2023-03-10T10:14:30.605Z,100.00
2023-03-10T10:17:07.775Z,100.00
2023-03-10T10:19:36.950Z,100.00
2023-03-10T10:22:11.145Z,100.00
2023-03-10T10:24:38.572Z,100.00
2023-03-10T10:27:05.054Z,100.00
2023-03-10T10:29:36.542Z,100.00
2023-03-10T10:32:04.921Z,100.00
2023-03-10T10:34:32.201Z,100.00
2023-03-10T10:36:59.242Z,100.00
2023-03-10T10:39:32.334Z,100.00
2023-03-10T10:42:24.190Z,100.00
2023-03-10T10:45:16.410Z,100.00
2023-03-10T10:47:51.494Z,100.00
2023-03-10T10:50:27.759Z,100.00
2023-03-10T10:53:12.961Z,100.00
2023-03-10T10:55:40.604Z,100.00
2023-03-10T10:58:23.715Z,100.00
2023-03-10T11:00:58.964Z,100.00
2023-03-10T11:03:39.608Z,100.00
2023-03-10T11:06:21.316Z,100.00
2023-03-10T11:08:51.345Z,100.00
2023-03-10T11:11:23.396Z,100.00
2023-03-10T11:14:17.785Z,100.00
2023-03-10T11:17:16.340Z,100.00
2023-03-10T11:19:51.600Z,100.00
2023-03-10T11:22:23.725Z,100.00
2023-03-10T11:25:00.297Z,100.00
2023-03-10T11:28:13.274Z,100.00
2023-03-10T11:30:47.018Z,100.00
2023-03-10T11:33:20.883Z,100.00
2023-03-10T11:35:52.162Z,100.00
2023-03-10T11:38:35.082Z,100.00
2023-03-10T11:41:08.424Z,100.00
2023-03-10T11:43:39.227Z,99.68
2023-03-10T11:46:28.789Z,99.18
2023-03-10T11:48:57.708Z,98.35
2023-03-10T11:51:30.198Z,97.31
2023-03-10T11:54:03.871Z,97.45
2023-03-10T11:56:30.768Z,96.56
2023-03-10T11:59:07.006Z,95.95
2023-03-10T12:01:38.866Z,95.29
2023-03-10T12:04:12.691Z,95.07
2023-03-10T12:06:46.220Z,93.66
2023-03-10T12:09:27.912Z,93.07
2023-03-10T12:11:54.846Z,90.84
2023-03-10T12:14:21.607Z,91.03
2023-03-10T12:16:49.091Z,91.70
2023-03-10T12:19:16.253Z,92.51
2023-03-10T12:21:42.713Z,92.25
2023-03-10T12:24:58.169Z,91.27
2023-03-10T12:27:24.903Z,90.73
2023-03-10T12:29:51.367Z,89.97
2023-03-10T12:32:41.664Z,89.28
2023-03-10T12:35:28.878Z,88.23
2023-03-10T12:38:42.694Z,87.84
2023-03-10T12:41:10.028Z,86.56
2023-03-10T12:43:51.399Z,85.44
2023-03-10T12:46:39.768Z,82.88
2023-03-10T12:49:25.164Z,82.20
2023-03-10T12:52:00.154Z,80.75
2023-03-10T12:55:04.462Z,79.35
2023-03-10T12:57:36.836Z,78.90
2023-03-10T13:00:24.983Z,78.02
2023-03-10T13:02:55.937Z,76.74
2023-03-10T13:05:28.087Z,76.50
2023-03-10T13:07:57.910Z,75.39
2023-03-10T13:10:26.411Z,74.90
2023-03-10T13:13:03.683Z,74.96
2023-03-10T13:15:32.477Z,74.76
2023-03-10T13:18:20.707Z,73.87
2023-03-10T13:20:48.342Z,73.63
2023-03-10T13:23:29.846Z,72.92
2023-03-10T13:26:01.591Z,73.58
2023-03-10T13:28:32.057Z,72.83
2023-03-10T13:31:19.250Z,72.39
2023-03-10T13:33:53.372Z,72.41
2023-03-10T13:36:40.032Z,72.86
2023-03-10T13:39:17.645Z,73.19
2023-03-10T13:41:52.245Z,73.55
2023-03-10T13:44:26.890Z,75.77
2023-03-10T13:47:00.484Z,76.72
2023-03-10T13:49:32.596Z,77.69
2023-03-10T13:52:01.297Z,78.56
2023-03-10T13:54:28.911Z,79.07
2023-03-10T13:57:03.405Z,80.08
2023-03-10T13:59:32.564Z,79.87
2023-03-10T14:02:00.567Z,79.58
2023-03-10T14:04:47.093Z,79.00
2023-03-10T14:07:23.822Z,79.41
2023-03-10T14:10:18.505Z,79.69
2023-03-10T14:12:49.837Z,79.18
2023-03-10T14:15:19.430Z,79.92
2023-03-10T14:17:46.568Z,80.42
2023-03-10T14:20:31.411Z,79.80
2023-03-10T14:22:58.143Z,80.13
2023-03-10T14:25:25.372Z,79.19
2023-03-10T14:30:41.982Z,80.33
2023-03-10T14:33:13.407Z,80.57
2023-03-10T14:35:40.396Z,80.23
2023-03-10T14:38:07.118Z,80.49
2023-03-10T14:40:39.235Z,80.28
2023-03-10T14:43:05.988Z,80.49
2023-03-10T14:45:36.681Z,79.21
2023-03-10T14:48:15.105Z,77.95
2023-03-10T14:50:41.812Z,77.78
2023-03-10T14:53:13.333Z,76.93
2023-03-10T14:55:40.872Z,76.55
2023-03-10T14:58:08.205Z,77.05
2023-03-10T15:00:35.515Z,77.92
2023-03-10T15:03:01.994Z,77.69
2023-03-10T15:05:45.014Z,78.17
2023-03-10T15:08:14.117Z,78.92
2023-03-10T15:10:42.744Z,78.65
2023-03-10T15:13:13.456Z,78.64
2023-03-10T15:15:42.456Z,78.16
2023-03-10T15:18:13.465Z,78.52
2023-03-10T15:20:40.153Z,78.52
2023-03-10T15:23:07.038Z,77.76
2023-03-10T15:25:33.838Z,77.88
2023-03-10T15:28:00.404Z,77.64
2023-03-10T15:30:29.910Z,78.27
2023-03-10T15:32:56.828Z,78.83
2023-03-10T15:35:23.831Z,78.29
2023-03-10T15:37:51.358Z,78.41
2023-03-10T15:40:29.218Z,78.28
2023-03-10T15:42:57.504Z,78.89
2023-03-10T15:45:25.609Z,79.02
2023-03-10T15:47:52.352Z,79.70
2023-03-10T15:50:19.780Z,79.67
2023-03-10T15:52:51.677Z,80.00
2023-03-10T15:55:18.396Z,80.59
2023-03-10T15:57:47.978Z,81.04
2023-03-10T16:00:18.556Z,81.35
2023-03-10T16:02:45.852Z,81.75
2023-03-10T16:05:12.658Z,81.76
2023-03-10T16:07:39.479Z,81.97
2023-03-10T16:10:07.129Z,81.86
2023-03-10T16:12:33.865Z,82.50
2023-03-10T16:15:00.488Z,82.08
2023-03-10T16:17:29.284Z,82.56
2023-03-10T16:19:56.310Z,82.73
2023-03-10T16:22:23.280Z,82.46
2023-03-10T16:24:49.882Z,82.82
2023-03-10T16:27:16.451Z,82.58
2023-03-10T16:29:43.123Z,82.46
2023-03-10T16:32:10.019Z,82.61
2023-03-10T16:34:36.515Z,82.47
2023-03-10T16:37:03.011Z,83.02
2023-03-10T16:39:32.888Z,82.80
2023-03-10T16:42:00.006Z,83.25
2023-03-10T16:44:26.544Z,82.63
2023-03-10T16:46:53.225Z,83.72
2023-03-10T16:49:19.872Z,83.76
2023-03-10T16:51:47.744Z,83.35
2023-03-10T16:54:20.581Z,83.51
2023-03-10T16:56:49.203Z,83.39
2023-03-10T16:59:18.964Z,84.43
2023-03-10T17:01:45.881Z,84.06
2023-03-10T17:04:12.992Z,84.58
2023-03-10T17:06:40.072Z,84.93
2023-03-10T17:09:08.902Z,85.11
2023-03-10T17:11:45.171Z,85.53
2023-03-10T17:14:15.013Z,85.10
2023-03-10T17:16:43.460Z,85.17
2023-03-10T17:19:21.141Z,84.87
2023-03-10T17:21:49.439Z,84.24
2023-03-10T17:24:19.427Z,84.87
2023-03-10T17:26:46.898Z,85.37
2023-03-10T17:29:13.852Z,85.62
2023-03-10T17:31:40.680Z,86.04
2023-03-10T17:34:11.490Z,85.62
2023-03-10T17:36:38.150Z,86.06
2023-03-10T17:39:05.789Z,85.89
2023-03-10T17:41:34.049Z,85.63
2023-03-10T17:44:00.842Z,85.71
2023-03-10T17:46:29.854Z,86.13
2023-03-10T17:48:57.686Z,86.49
2023-03-10T17:51:29.833Z,86.65
2023-03-10T17:53:58.368Z,87.57
2023-03-10T17:56:25.840Z,87.64
2023-03-10T17:58:53.332Z,87.97
2023-03-10T18:01:27.156Z,88.25
2023-03-10T18:03:56.077Z,88.21
2023-03-10T18:06:24.925Z,88.30
2023-03-10T18:08:56.064Z,88.56
2023-03-10T18:11:23.792Z,89.25
2023-03-10T18:13:50.386Z,89.41
2023-03-10T18:16:28.789Z,89.55
2023-03-10T18:18:56.850Z,89.97
2023-03-10T18:21:23.895Z,90.13
2023-03-10T18:23:51.394Z,90.45
2023-03-10T18:26:20.682Z,90.43
2023-03-10T18:28:47.334Z,90.93
2023-03-10T18:31:25.862Z,91.48
2023-03-10T18:33:52.866Z,91.36
2023-03-10T18:36:20.902Z,91.53
2023-03-10T18:38:48.332Z,91.55
2023-03-10T18:41:18.772Z,91.94
2023-03-10T18:43:45.721Z,91.86
2023-03-10T18:46:12.716Z,91.65
2023-03-10T18:48:39.348Z,91.86
2023-03-10T18:51:06.260Z,89.68
2023-03-10T18:53:33.165Z,89.97
2023-03-10T18:56:00.111Z,89.95
2023-03-10T18:58:27.258Z,90.20
2023-03-10T19:00:54.030Z,90.65
2023-03-10T19:03:20.739Z,90.36
2023-03-10T19:05:53.001Z,90.25
2023-03-10T19:08:20.106Z,89.70
2023-03-10T19:10:55.011Z,90.41
2023-03-10T19:13:23.213Z,90.37
2023-03-10T19:15:49.932Z,90.74
2023-03-10T19:18:16.840Z,90.64
2023-03-10T19:20:43.865Z,90.87
2023-03-10T19:23:10.697Z,91.72
2023-03-10T19:25:37.354Z,91.92
2023-03-10T19:28:04.681Z,91.91
2023-03-10T19:30:34.019Z,92.00
2023-03-10T19:33:00.713Z,91.83
2023-03-10T19:35:27.462Z,91.46
2023-03-10T19:37:54.492Z,91.20
2023-03-10T19:40:21.592Z,91.41
2023-03-10T19:42:48.637Z,91.75
2023-03-10T19:45:17.571Z,91.96
2023-03-10T19:47:44.864Z,91.41
2023-03-10T19:50:15.191Z,90.95
2023-03-10T19:52:46.323Z,90.26
2023-03-10T19:55:19.416Z,89.83
2023-03-10T19:57:48.680Z,89.95
2023-03-10T20:00:19.101Z,89.78
2023-03-10T20:02:46.083Z,89.01
2023-03-10T20:05:19.731Z,89.24
2023-03-10T20:07:47.576Z,88.35
2023-03-10T20:10:17.061Z,88.60
2023-03-10T20:12:44.555Z,88.82
2023-03-10T20:15:11.312Z,88.42
2023-03-10T20:17:38.043Z,88.54
2023-03-10T20:20:10.496Z,88.32
2023-03-10T20:22:38.763Z,88.83
2023-03-10T20:25:06.830Z,89.48
2023-03-10T20:27:33.732Z,89.14
2023-03-10T20:30:00.331Z,90.38
2023-03-10T20:32:27.520Z,91.13
2023-03-10T20:34:54.353Z,92.93
2023-03-10T20:37:21.094Z,93.71
2023-03-10T20:39:47.793Z,95.43
2023-03-10T20:42:15.285Z,95.81
2023-03-10T20:44:45.636Z,95.88
2023-03-10T20:47:12.453Z,95.84
2023-03-10T20:49:39.024Z,95.16
2023-03-10T20:52:05.693Z,94.22
2023-03-10T20:54:32.303Z,94.30
2023-03-10T20:56:59.152Z,95.88
2023-03-10T20:59:25.765Z,95.58
2023-03-10T21:01:52.407Z,96.20
2023-03-10T21:04:20.107Z,96.32
2023-03-10T21:06:47.525Z,96.18
2023-03-10T21:09:14.900Z,96.48
2023-03-10T21:11:42.151Z,96.72
2023-03-10T21:14:08.701Z,96.65
2023-03-10T21:16:42.810Z,97.33
2023-03-10T21:19:10.057Z,96.86
2023-03-10T21:21:36.573Z,96.35
2023-03-10T21:24:04.420Z,96.49
2023-03-10T21:26:31.468Z,95.39
2023-03-10T21:29:00.024Z,95.16
2023-03-10T21:31:26.995Z,94.64
2023-03-10T21:33:53.821Z,94.97
2023-03-10T21:36:22.851Z,94.51
2023-03-10T21:38:50.175Z,93.76
2023-03-10T21:41:19.014Z,93.94
2023-03-10T21:43:45.580Z,94.23
2023-03-10T21:46:12.363Z,93.12
2023-03-10T21:48:38.887Z,93.47
2023-03-10T21:51:05.712Z,92.43
2023-03-10T21:53:32.303Z,91.80
2023-03-10T21:56:00.572Z,92.02
2023-03-10T21:58:27.393Z,91.28
2023-03-10T22:00:56.166Z,90.21
2023-03-10T22:03:22.912Z,89.92
2023-03-10T22:05:50.398Z,89.88
2023-03-10T22:08:16.841Z,90.27
2023-03-10T22:10:43.533Z,89.97
2023-03-10T22:13:10.051Z,89.84
2023-03-10T22:15:36.768Z,89.99
2023-03-10T22:18:03.688Z,90.15
2023-03-10T22:20:30.295Z,90.55
2023-03-10T22:22:57.248Z,90.45
2023-03-10T22:25:24.544Z,90.95
2023-03-10T22:27:53.712Z,91.17
2023-03-10T22:30:21.870Z,91.55
2023-03-10T22:32:48.668Z,92.05
2023-03-10T22:35:16.292Z,91.74
2023-03-10T22:37:43.197Z,92.08
2023-03-10T22:40:16.523Z,92.75
2023-03-10T22:42:43.556Z,92.54
2023-03-10T22:45:23.570Z,93.44
2023-03-10T22:47:52.427Z,93.24
2023-03-10T22:50:22.313Z,93.78
2023-03-10T22:52:48.845Z,93.94
2023-03-10T22:55:17.720Z,94.00
2023-03-10T22:57:44.457Z,94.48
2023-03-10T23:00:18.763Z,94.54
2023-03-10T23:02:49.214Z,94.37
2023-03-10T23:05:17.061Z,94.54
2023-03-10T23:07:44.248Z,95.29
2023-03-10T23:10:22.485Z,95.28
2023-03-10T23:12:49.702Z,95.22
2023-03-10T23:15:25.146Z,95.81
2023-03-10T23:17:52.219Z,95.95
2023-03-10T23:20:18.826Z,96.01
2023-03-10T23:22:46.350Z,95.72
2023-03-10T23:25:20.428Z,96.07
2023-03-10T23:27:46.936Z,96.37
2023-03-10T23:30:15.086Z,96.19
2023-03-10T23:32:45.960Z,96.89
2023-03-10T23:35:15.789Z,96.75
2023-03-10T23:37:42.497Z,96.54
2023-03-10T23:40:11.520Z,96.19
2023-03-10T23:42:38.393Z,95.79
2023-03-10T23:45:07.861Z,95.85
2023-03-10T23:47:35.499Z,96.31
2023-03-10T23:50:02.337Z,96.45
2023-03-10T23:52:28.949Z,96.59
2023-03-10T23:54:55.498Z,96.18
2023-03-10T23:57:21.958Z,96.66
2023-03-10T23:59:48.566Z,95.97
